Arimo, Idaho
Current Conditions -  °F | °C
As of 1:53 AM on Friday 24 Oct 2014 (Local Time) from KPIH Reporting Station
Overcast Overcast  
Wind Chill: 53°   Ceiling: 11000
Heat Index: 53°   Visibility: 10mi
Dew Point: 37°   Wind: 7mph
Humidity: 55%   Direction: 210°SSW
Pressure: 30.13"   Gusts: NA
Location:  42.56°N, 112.17°W
Report Text: KPIH 240753Z 21006KT 10SM OVC110 12/03 A3013 RMK AO2 SLP175 T01170028
Loading
Personal Weather Stations






























Interactive Weather Map New forecast layout! Learn more

10-Day Weather Forecast

Advertisements
Track Severe Weather on mobile